sensor_id;sensor_type;location;lat;lon;timestamp;pressure;altitude;pressure_sealevel;temperature;humidity
28606;BME280;46498;49.968;7.754;2023-01-26T00:00:25;97625.00;;;-2.79;100.00
28606;BME280;46498;49.968;7.754;2023-01-26T00:05:26;97629.00;;;-2.73;100.00
28606;BME280;46498;49.968;7.754;2023-01-26T00:10:27;97633.00;;;-2.52;100.00
28606;BME280;46498;49.968;7.754;2023-01-26T00:15:27;97633.00;;;-2.42;100.00
28606;BME280;46498;49.968;7.754;2023-01-26T00:20:29;97635.00;;;-2.24;100.00
28606;BME280;46498;49.968;7.754;2023-01-26T00:25:30;97635.00;;;-2.27;100.00
28606;BME280;46498;49.968;7.754;2023-01-26T00:30:31;97628.00;;;-2.25;100.00
28606;BME280;46498;49.968;7.754;2023-01-26T00:35:31;97627.00;;;-2.37;100.00
28606;BME280;46498;49.968;7.754;2023-01-26T00:40:32;97623.00;;;-2.25;100.00
28606;BME280;46498;49.968;7.754;2023-01-26T00:45:34;97620.00;;;-2.36;100.00
28606;BME280;46498;49.968;7.754;2023-01-26T00:50:38;97617.00;;;-2.37;100.00
28606;BME280;46498;49.968;7.754;2023-01-26T00:55:39;97618.00;;;-2.21;100.00
28606;BME280;46498;49.968;7.754;2023-01-26T01:00:40;97630.00;;;-2.47;100.00
28606;BME280;46498;49.968;7.754;2023-01-26T01:05:41;97623.00;;;-2.38;100.00
28606;BME280;46498;49.968;7.754;2023-01-26T01:10:42;97624.00;;;-2.46;100.00
28606;BME280;46498;49.968;7.754;2023-01-26T01:15:43;97628.00;;;-2.33;100.00
28606;BME280;46498;49.968;7.754;2023-01-26T01:20:43;97620.00;;;-2.38;100.00
28606;BME280;46498;49.968;7.754;2023-01-26T01:25:44;97614.00;;;-2.54;100.00
28606;BME280;46498;49.968;7.754;2023-01-26T01:30:45;97603.00;;;-2.59;100.00
28606;BME280;46498;49.968;7.754;2023-01-26T01:35:58;97614.00;;;-2.56;100.00
28606;BME280;46498;49.968;7.754;2023-01-26T01:40:59;97609.00;;;-2.70;100.00
28606;BME280;46498;49.968;7.754;2023-01-26T01:46:03;97607.00;;;-2.68;100.00
28606;BME280;46498;49.968;7.754;2023-01-26T01:51:12;97600.00;;;-2.88;100.00
28606;BME280;46498;49.968;7.754;2023-01-26T01:56:20;97594.00;;;-2.93;100.00
28606;BME280;46498;49.968;7.754;2023-01-26T02:01:23;97595.00;;;-2.78;100.00
28606;BME280;46498;49.968;7.754;2023-01-26T02:06:32;97593.00;;;-2.86;100.00
28606;BME280;46498;49.968;7.754;2023-01-26T02:11:40;97589.00;;;-2.85;100.00
28606;BME280;46498;49.968;7.754;2023-01-26T02:16:44;97574.00;;;-2.89;100.00
28606;BME280;46498;49.968;7.754;2023-01-26T02:21:46;97583.00;;;-2.71;100.00
28606;BME280;46498;49.968;7.754;2023-01-26T02:26:51;97563.00;;;-2.74;100.00
28606;BME280;46498;49.968;7.754;2023-01-26T02:31:54;97567.00;;;-2.77;100.00
28606;BME280;46498;49.968;7.754;2023-01-26T02:36:58;97563.00;;;-2.69;100.00
28606;BME280;46498;49.968;7.754;2023-01-26T02:41:59;97557.00;;;-2.68;100.00
28606;BME280;46498;49.968;7.754;2023-01-26T02:47:19;97553.00;;;-2.69;100.00
28606;BME280;46498;49.968;7.754;2023-01-26T02:52:22;97552.00;;;-2.73;100.00
28606;BME280;46498;49.968;7.754;2023-01-26T02:57:29;97548.00;;;-2.55;100.00
28606;BME280;46498;49.968;7.754;2023-01-26T03:02:31;97550.00;;;-2.59;100.00
28606;BME280;46498;49.968;7.754;2023-01-26T03:07:32;97543.00;;;-2.68;100.00
28606;BME280;46498;49.968;7.754;2023-01-26T03:12:33;97536.00;;;-2.59;100.00
28606;BME280;46498;49.968;7.754;2023-01-26T03:17:34;97537.00;;;-2.49;100.00
28606;BME280;46498;49.968;7.754;2023-01-26T03:22:37;97533.00;;;-2.29;100.00
28606;BME280;46498;49.968;7.754;2023-01-26T03:27:56;97524.00;;;-2.40;100.00
28606;BME280;46498;49.968;7.754;2023-01-26T03:32:59;97524.00;;;-2.40;100.00
28606;BME280;46498;49.968;7.754;2023-01-26T03:38:00;97524.00;;;-2.48;100.00
28606;BME280;46498;49.968;7.754;2023-01-26T03:43:13;97523.00;;;-2.40;100.00
28606;BME280;46498;49.968;7.754;2023-01-26T03:48:33;97508.00;;;-2.43;100.00
28606;BME280;46498;49.968;7.754;2023-01-26T03:53:52;97508.00;;;-2.55;100.00
28606;BME280;46498;49.968;7.754;2023-01-26T03:59:12;97507.00;;;-2.46;100.00
28606;BME280;46498;49.968;7.754;2023-01-26T04:04:15;97508.00;;;-2.58;100.00
28606;BME280;46498;49.968;7.754;2023-01-26T04:09:35;97491.00;;;-2.76;100.00
28606;BME280;46498;49.968;7.754;2023-01-26T04:14:37;97500.00;;;-2.62;100.00
28606;BME280;46498;49.968;7.754;2023-01-26T04:19:58;97489.00;;;-2.59;100.00
28606;BME280;46498;49.968;7.754;2023-01-26T04:25:19;97483.00;;;-2.44;100.00
28606;BME280;46498;49.968;7.754;2023-01-26T04:30:20;97479.00;;;-2.41;100.00
28606;BME280;46498;49.968;7.754;2023-01-26T04:35:22;97484.00;;;-2.45;100.00
28606;BME280;46498;49.968;7.754;2023-01-26T04:40:23;97476.00;;;-2.43;100.00
28606;BME280;46498;49.968;7.754;2023-01-26T04:45:24;97463.00;;;-2.47;100.00
28606;BME280;46498;49.968;7.754;2023-01-26T04:50:27;97466.00;;;-2.60;100.00
28606;BME280;46498;49.968;7.754;2023-01-26T04:55:28;97461.00;;;-2.77;100.00
28606;BME280;46498;49.968;7.754;2023-01-26T05:00:29;97462.00;;;-2.86;100.00
28606;BME280;46498;49.968;7.754;2023-01-26T05:05:38;97455.00;;;-2.73;100.00
28606;BME280;46498;49.968;7.754;2023-01-26T05:10:39;97460.00;;;-2.63;100.00
28606;BME280;46498;49.968;7.754;2023-01-26T05:15:53;97468.00;;;-2.75;100.00
28606;BME280;46498;49.968;7.754;2023-01-26T05:21:09;97458.00;;;-2.64;100.00
28606;BME280;46498;49.968;7.754;2023-01-26T05:26:18;97464.00;;;-2.63;100.00
28606;BME280;46498;49.968;7.754;2023-01-26T05:31:29;97463.00;;;-2.51;100.00
28606;BME280;46498;49.968;7.754;2023-01-26T05:36:30;97466.00;;;-2.63;100.00
28606;BME280;46498;49.968;7.754;2023-01-26T05:41:31;97469.00;;;-2.58;100.00
28606;BME280;46498;49.968;7.754;2023-01-26T05:46:52;97468.00;;;-2.53;100.00
28606;BME280;46498;49.968;7.754;2023-01-26T05:51:53;97480.00;;;-2.61;100.00
28606;BME280;46498;49.968;7.754;2023-01-26T05:56:54;97477.00;;;-2.58;100.00
28606;BME280;46498;49.968;7.754;2023-01-26T06:01:59;97475.00;;;-2.56;100.00
28606;BME280;46498;49.968;7.754;2023-01-26T06:07:01;97468.00;;;-2.41;100.00
28606;BME280;46498;49.968;7.754;2023-01-26T06:12:16;97462.00;;;-2.62;100.00
28606;BME280;46498;49.968;7.754;2023-01-26T06:17:36;97469.00;;;-2.73;100.00
28606;BME280;46498;49.968;7.754;2023-01-26T06:22:40;97473.00;;;-2.65;100.00
28606;BME280;46498;49.968;7.754;2023-01-26T06:27:41;97466.00;;;-2.64;100.00
28606;BME280;46498;49.968;7.754;2023-01-26T06:32:48;97471.00;;;-2.98;100.00
28606;BME280;46498;49.968;7.754;2023-01-26T06:37:49;97463.00;;;-3.11;100.00
28606;BME280;46498;49.968;7.754;2023-01-26T06:42:51;97464.00;;;-3.00;100.00
28606;BME280;46498;49.968;7.754;2023-01-26T06:47:53;97462.00;;;-3.06;100.00
28606;BME280;46498;49.968;7.754;2023-01-26T06:52:55;97471.00;;;-3.03;100.00
28606;BME280;46498;49.968;7.754;2023-01-26T06:59:20;97464.00;;;-2.98;100.00
28606;BME280;46498;49.968;7.754;2023-01-26T07:04:39;97481.00;;;-3.05;100.00
28606;BME280;46498;49.968;7.754;2023-01-26T07:09:40;97482.00;;;-3.17;100.00
28606;BME280;46498;49.968;7.754;2023-01-26T07:14:41;97495.00;;;-3.09;100.00
28606;BME280;46498;49.968;7.754;2023-01-26T07:19:42;97502.00;;;-3.19;100.00
28606;BME280;46498;49.968;7.754;2023-01-26T07:24:43;97513.00;;;-3.09;100.00
28606;BME280;46498;49.968;7.754;2023-01-26T07:29:44;97512.00;;;-2.96;100.00
28606;BME280;46498;49.968;7.754;2023-01-26T07:34:46;97521.00;;;-2.91;100.00
28606;BME280;46498;49.968;7.754;2023-01-26T07:39:48;97520.00;;;-2.78;100.00
28606;BME280;46498;49.968;7.754;2023-01-26T07:44:49;97520.00;;;-2.83;100.00
28606;BME280;46498;49.968;7.754;2023-01-26T07:49:49;97532.00;;;-2.84;100.00
28606;BME280;46498;49.968;7.754;2023-01-26T07:54:50;97534.00;;;-2.78;100.00
28606;BME280;46498;49.968;7.754;2023-01-26T07:59:51;97541.00;;;-2.80;100.00
28606;BME280;46498;49.968;7.754;2023-01-26T08:04:52;97530.00;;;-2.73;100.00
28606;BME280;46498;49.968;7.754;2023-01-26T08:09:53;97533.00;;;-2.85;100.00
28606;BME280;46498;49.968;7.754;2023-01-26T08:14:54;97535.00;;;-2.84;100.00
28606;BME280;46498;49.968;7.754;2023-01-26T08:19:54;97533.00;;;-2.71;100.00
28606;BME280;46498;49.968;7.754;2023-01-26T08:24:55;97533.00;;;-2.81;100.00
28606;BME280;46498;49.968;7.754;2023-01-26T08:29:56;97533.00;;;-2.81;100.00
28606;BME280;46498;49.968;7.754;2023-01-26T08:34:57;97537.00;;;-2.79;100.00
28606;BME280;46498;49.968;7.754;2023-01-26T08:39:58;97547.00;;;-2.67;100.00
28606;BME280;46498;49.968;7.754;2023-01-26T08:44:59;97549.00;;;-2.56;100.00
28606;BME280;46498;49.968;7.754;2023-01-26T08:49:59;97544.00;;;-2.68;100.00
28606;BME280;46498;49.968;7.754;2023-01-26T08:55:01;97541.00;;;-2.91;100.00
28606;BME280;46498;49.968;7.754;2023-01-26T09:00:04;97547.00;;;-2.88;100.00
28606;BME280;46498;49.968;7.754;2023-01-26T09:05:07;97551.00;;;-2.67;100.00
28606;BME280;46498;49.968;7.754;2023-01-26T09:10:10;97545.00;;;-2.50;100.00
28606;BME280;46498;49.968;7.754;2023-01-26T09:15:11;97545.00;;;-2.62;100.00
28606;BME280;46498;49.968;7.754;2023-01-26T09:20:12;97552.00;;;-2.66;100.00
28606;BME280;46498;49.968;7.754;2023-01-26T09:25:14;97545.00;;;-2.04;100.00
28606;BME280;46498;49.968;7.754;2023-01-26T09:30:15;97544.00;;;-2.21;100.00
28606;BME280;46498;49.968;7.754;2023-01-26T09:35:16;97549.00;;;-2.42;100.00
28606;BME280;46498;49.968;7.754;2023-01-26T09:40:36;97549.00;;;-2.54;100.00
28606;BME280;46498;49.968;7.754;2023-01-26T09:45:52;97556.00;;;-2.68;100.00
28606;BME280;46498;49.968;7.754;2023-01-26T09:51:09;97560.00;;;-2.57;100.00
28606;BME280;46498;49.968;7.754;2023-01-26T09:56:17;97555.00;;;-2.47;100.00
28606;BME280;46498;49.968;7.754;2023-01-26T10:03:14;97555.00;;;-2.51;100.00
28606;BME280;46498;49.968;7.754;2023-01-26T10:08:20;97550.00;;;-2.40;100.00
28606;BME280;46498;49.968;7.754;2023-01-26T10:13:23;97553.00;;;-2.17;100.00
28606;BME280;46498;49.968;7.754;2023-01-26T10:18:33;97552.00;;;-1.98;100.00
28606;BME280;46498;49.968;7.754;2023-01-26T10:23:35;97548.00;;;-1.91;100.00
28606;BME280;46498;49.968;7.754;2023-01-26T10:28:36;97547.00;;;-1.93;100.00
28606;BME280;46498;49.968;7.754;2023-01-26T10:33:38;97551.00;;;-2.12;100.00
28606;BME280;46498;49.968;7.754;2023-01-26T10:38:43;97540.00;;;-2.09;100.00
28606;BME280;46498;49.968;7.754;2023-01-26T10:45:43;97532.00;;;-2.12;100.00
28606;BME280;46498;49.968;7.754;2023-01-26T10:50:45;97525.00;;;-2.16;100.00
28606;BME280;46498;49.968;7.754;2023-01-26T10:56:11;97521.00;;;-2.16;100.00
28606;BME280;46498;49.968;7.754;2023-01-26T11:01:14;97521.00;;;-2.06;100.00
28606;BME280;46498;49.968;7.754;2023-01-26T11:06:18;97522.00;;;-2.07;100.00
28606;BME280;46498;49.968;7.754;2023-01-26T11:11:26;97514.00;;;-1.83;100.00
28606;BME280;46498;49.968;7.754;2023-01-26T11:16:30;97506.00;;;-1.99;100.00
28606;BME280;46498;49.968;7.754;2023-01-26T11:21:54;97489.00;;;-2.04;100.00
28606;BME280;46498;49.968;7.754;2023-01-26T11:27:21;97478.00;;;-2.04;100.00
28606;BME280;46498;49.968;7.754;2023-01-26T11:43:27;97485.00;;;-2.08;100.00
28606;BME280;46498;49.968;7.754;2023-01-26T11:49:42;97473.00;;;-2.09;100.00
28606;BME280;46498;49.968;7.754;2023-01-26T11:58:01;97469.00;;;-1.70;100.00
28606;BME280;46498;49.968;7.754;2023-01-26T12:03:14;97454.00;;;-1.72;100.00
28606;BME280;46498;49.968;7.754;2023-01-26T12:10:11;97456.00;;;-1.42;100.00
28606;BME280;46498;49.968;7.754;2023-01-26T12:15:18;97443.00;;;-1.00;100.00
28606;BME280;46498;49.968;7.754;2023-01-26T12:20:39;97437.00;;;-0.94;100.00
28606;BME280;46498;49.968;7.754;2023-01-26T12:25:46;97436.00;;;-0.87;100.00
28606;BME280;46498;49.968;7.754;2023-01-26T12:31:13;97429.00;;;-1.10;100.00
28606;BME280;46498;49.968;7.754;2023-01-26T12:48:47;97419.00;;;-0.96;100.00
28606;BME280;46498;49.968;7.754;2023-01-26T12:53:58;97413.00;;;-1.05;100.00
28606;BME280;46498;49.968;7.754;2023-01-26T12:59:07;97408.00;;;-1.10;100.00
28606;BME280;46498;49.968;7.754;2023-01-26T13:04:39;97399.00;;;-1.01;100.00
28606;BME280;46498;49.968;7.754;2023-01-26T13:09:50;97388.00;;;-1.19;100.00
28606;BME280;46498;49.968;7.754;2023-01-26T13:15:12;97393.00;;;-1.19;100.00
28606;BME280;46498;49.968;7.754;2023-01-26T13:20:25;97401.00;;;-1.08;100.00
28606;BME280;46498;49.968;7.754;2023-01-26T13:25:30;97390.00;;;-0.95;100.00
28606;BME280;46498;49.968;7.754;2023-01-26T13:31:02;97395.00;;;-1.10;100.00
28606;BME280;46498;49.968;7.754;2023-01-26T13:36:12;97392.00;;;-0.54;100.00
28606;BME280;46498;49.968;7.754;2023-01-26T13:41:19;97397.00;;;-0.76;100.00
28606;BME280;46498;49.968;7.754;2023-01-26T13:46:35;97399.00;;;-0.78;100.00
28606;BME280;46498;49.968;7.754;2023-01-26T13:51:41;97392.00;;;-0.78;100.00
28606;BME280;46498;49.968;7.754;2023-01-26T13:57:03;97388.00;;;-0.62;100.00
28606;BME280;46498;49.968;7.754;2023-01-26T14:02:19;97385.00;;;-0.89;100.00
28606;BME280;46498;49.968;7.754;2023-01-26T14:07:25;97404.00;;;-0.98;100.00
28606;BME280;46498;49.968;7.754;2023-01-26T14:12:32;97409.00;;;-1.06;100.00
28606;BME280;46498;49.968;7.754;2023-01-26T14:17:45;97412.00;;;-1.08;100.00
28606;BME280;46498;49.968;7.754;2023-01-26T14:28:40;97426.00;;;-1.14;100.00
28606;BME280;46498;49.968;7.754;2023-01-26T14:33:42;97430.00;;;-1.24;100.00
28606;BME280;46498;49.968;7.754;2023-01-26T14:38:46;97425.00;;;-1.18;100.00
28606;BME280;46498;49.968;7.754;2023-01-26T14:43:48;97428.00;;;-1.19;100.00
28606;BME280;46498;49.968;7.754;2023-01-26T14:48:56;97421.00;;;-1.26;100.00
28606;BME280;46498;49.968;7.754;2023-01-26T14:54:02;97427.00;;;-1.18;100.00
28606;BME280;46498;49.968;7.754;2023-01-26T14:59:06;97433.00;;;-1.13;100.00
28606;BME280;46498;49.968;7.754;2023-01-26T15:04:33;97436.00;;;-1.25;100.00
28606;BME280;46498;49.968;7.754;2023-01-26T15:09:35;97434.00;;;-1.19;100.00
28606;BME280;46498;49.968;7.754;2023-01-26T15:14:47;97435.00;;;-1.30;100.00
28606;BME280;46498;49.968;7.754;2023-01-26T15:19:48;97425.00;;;-1.21;100.00
28606;BME280;46498;49.968;7.754;2023-01-26T15:31:40;97415.00;;;-1.31;100.00
28606;BME280;46498;49.968;7.754;2023-01-26T15:36:51;97417.00;;;-1.38;100.00
28606;BME280;46498;49.968;7.754;2023-01-26T15:42:25;97412.00;;;-1.51;100.00
28606;BME280;46498;49.968;7.754;2023-01-26T15:47:28;97419.00;;;-1.34;100.00
28606;BME280;46498;49.968;7.754;2023-01-26T15:52:29;97420.00;;;-1.41;100.00
28606;BME280;46498;49.968;7.754;2023-01-26T15:57:30;97421.00;;;-1.48;100.00
28606;BME280;46498;49.968;7.754;2023-01-26T16:02:32;97424.00;;;-1.37;100.00
28606;BME280;46498;49.968;7.754;2023-01-26T16:07:33;97431.00;;;-1.55;100.00
28606;BME280;46498;49.968;7.754;2023-01-26T16:12:34;97432.00;;;-1.42;100.00
28606;BME280;46498;49.968;7.754;2023-01-26T16:17:35;97432.00;;;-1.46;100.00
28606;BME280;46498;49.968;7.754;2023-01-26T16:22:36;97430.00;;;-1.50;100.00
28606;BME280;46498;49.968;7.754;2023-01-26T16:27:36;97434.00;;;-1.41;100.00
28606;BME280;46498;49.968;7.754;2023-01-26T16:32:37;97434.00;;;-1.56;100.00
28606;BME280;46498;49.968;7.754;2023-01-26T16:37:38;97431.00;;;-1.72;100.00
28606;BME280;46498;49.968;7.754;2023-01-26T16:42:45;97435.00;;;-1.68;100.00
28606;BME280;46498;49.968;7.754;2023-01-26T16:47:51;97426.00;;;-1.63;100.00
28606;BME280;46498;49.968;7.754;2023-01-26T16:52:54;97428.00;;;-1.55;100.00
28606;BME280;46498;49.968;7.754;2023-01-26T16:57:55;97427.00;;;-1.68;100.00
28606;BME280;46498;49.968;7.754;2023-01-26T17:02:56;97429.00;;;-1.63;100.00
28606;BME280;46498;49.968;7.754;2023-01-26T17:07:57;97421.00;;;-1.46;100.00
28606;BME280;46498;49.968;7.754;2023-01-26T17:12:58;97414.00;;;-1.64;100.00
28606;BME280;46498;49.968;7.754;2023-01-26T17:17:59;97422.00;;;-1.47;100.00
28606;BME280;46498;49.968;7.754;2023-01-26T17:23:01;97407.00;;;-1.34;100.00
28606;BME280;46498;49.968;7.754;2023-01-26T17:28:02;97402.00;;;-1.62;100.00
28606;BME280;46498;49.968;7.754;2023-01-26T17:33:02;97403.00;;;-1.57;100.00
28606;BME280;46498;49.968;7.754;2023-01-26T17:38:03;97407.00;;;-1.57;100.00
28606;BME280;46498;49.968;7.754;2023-01-26T17:43:05;97405.00;;;-1.63;100.00
28606;BME280;46498;49.968;7.754;2023-01-26T17:48:05;97409.00;;;-1.45;100.00
28606;BME280;46498;49.968;7.754;2023-01-26T17:53:06;97410.00;;;-1.48;100.00
28606;BME280;46498;49.968;7.754;2023-01-26T17:58:07;97410.00;;;-1.44;100.00
28606;BME280;46498;49.968;7.754;2023-01-26T18:03:10;97420.00;;;-1.33;100.00
28606;BME280;46498;49.968;7.754;2023-01-26T18:08:11;97410.00;;;-1.53;100.00
28606;BME280;46498;49.968;7.754;2023-01-26T18:13:13;97420.00;;;-1.33;100.00
28606;BME280;46498;49.968;7.754;2023-01-26T18:18:13;97420.00;;;-1.23;100.00
28606;BME280;46498;49.968;7.754;2023-01-26T18:23:15;97421.00;;;-1.24;100.00
28606;BME280;46498;49.968;7.754;2023-01-26T18:28:16;97419.00;;;-1.18;100.00
28606;BME280;46498;49.968;7.754;2023-01-26T18:33:17;97414.00;;;-1.33;100.00
28606;BME280;46498;49.968;7.754;2023-01-26T18:38:18;97422.00;;;-1.32;100.00
28606;BME280;46498;49.968;7.754;2023-01-26T18:43:19;97430.00;;;-1.27;100.00
28606;BME280;46498;49.968;7.754;2023-01-26T18:48:20;97430.00;;;-1.40;100.00
28606;BME280;46498;49.968;7.754;2023-01-26T18:53:22;97440.00;;;-1.37;100.00
28606;BME280;46498;49.968;7.754;2023-01-26T18:58:23;97439.00;;;-1.25;100.00
28606;BME280;46498;49.968;7.754;2023-01-26T19:03:24;97436.00;;;-1.19;100.00
28606;BME280;46498;49.968;7.754;2023-01-26T19:08:25;97440.00;;;-1.20;100.00
28606;BME280;46498;49.968;7.754;2023-01-26T19:13:26;97435.00;;;-1.20;100.00
28606;BME280;46498;49.968;7.754;2023-01-26T19:18:27;97435.00;;;-1.17;100.00
28606;BME280;46498;49.968;7.754;2023-01-26T19:23:29;97437.00;;;-1.14;100.00
28606;BME280;46498;49.968;7.754;2023-01-26T19:28:29;97440.00;;;-0.93;100.00
28606;BME280;46498;49.968;7.754;2023-01-26T19:33:30;97434.00;;;-1.00;100.00
28606;BME280;46498;49.968;7.754;2023-01-26T19:38:32;97437.00;;;-0.88;100.00
28606;BME280;46498;49.968;7.754;2023-01-26T19:43:34;97443.00;;;-0.92;100.00
28606;BME280;46498;49.968;7.754;2023-01-26T19:48:35;97437.00;;;-0.90;100.00
28606;BME280;46498;49.968;7.754;2023-01-26T19:53:38;97438.00;;;-1.00;100.00
28606;BME280;46498;49.968;7.754;2023-01-26T19:58:39;97436.00;;;-0.84;100.00
28606;BME280;46498;49.968;7.754;2023-01-26T20:03:40;97437.00;;;-0.97;100.00
28606;BME280;46498;49.968;7.754;2023-01-26T20:08:42;97433.00;;;-0.90;100.00
28606;BME280;46498;49.968;7.754;2023-01-26T20:13:43;97428.00;;;-0.85;100.00
28606;BME280;46498;49.968;7.754;2023-01-26T20:18:44;97427.00;;;-0.84;100.00
28606;BME280;46498;49.968;7.754;2023-01-26T20:23:45;97437.00;;;-0.83;100.00
28606;BME280;46498;49.968;7.754;2023-01-26T20:28:55;97432.00;;;-0.84;100.00
28606;BME280;46498;49.968;7.754;2023-01-26T20:33:58;97431.00;;;-0.80;100.00
28606;BME280;46498;49.968;7.754;2023-01-26T20:39:02;97433.00;;;-0.72;100.00
28606;BME280;46498;49.968;7.754;2023-01-26T20:44:04;97426.00;;;-0.61;100.00
28606;BME280;46498;49.968;7.754;2023-01-26T20:49:07;97422.00;;;-0.64;100.00
28606;BME280;46498;49.968;7.754;2023-01-26T20:54:14;97415.00;;;-0.65;100.00
28606;BME280;46498;49.968;7.754;2023-01-26T20:59:15;97416.00;;;-0.71;100.00
28606;BME280;46498;49.968;7.754;2023-01-26T21:04:16;97411.00;;;-0.68;100.00
28606;BME280;46498;49.968;7.754;2023-01-26T21:09:16;97413.00;;;-0.66;100.00
28606;BME280;46498;49.968;7.754;2023-01-26T21:14:18;97412.00;;;-0.62;100.00
28606;BME280;46498;49.968;7.754;2023-01-26T21:19:19;97402.00;;;-0.56;100.00
28606;BME280;46498;49.968;7.754;2023-01-26T21:24:20;97402.00;;;-0.58;100.00
28606;BME280;46498;49.968;7.754;2023-01-26T21:29:22;97394.00;;;-0.46;100.00
28606;BME280;46498;49.968;7.754;2023-01-26T21:34:23;97394.00;;;-0.53;100.00
28606;BME280;46498;49.968;7.754;2023-01-26T21:39:24;97396.00;;;-0.43;100.00
28606;BME280;46498;49.968;7.754;2023-01-26T21:44:27;97387.00;;;-0.44;100.00
28606;BME280;46498;49.968;7.754;2023-01-26T21:49:28;97387.00;;;-0.05;100.00
28606;BME280;46498;49.968;7.754;2023-01-26T21:54:30;97381.00;;;-0.13;100.00
28606;BME280;46498;49.968;7.754;2023-01-26T21:59:31;97384.00;;;-0.16;100.00
28606;BME280;46498;49.968;7.754;2023-01-26T22:04:32;97379.00;;;-0.28;100.00
28606;BME280;46498;49.968;7.754;2023-01-26T22:09:33;97392.00;;;-0.25;100.00
28606;BME280;46498;49.968;7.754;2023-01-26T22:14:35;97388.00;;;-0.14;100.00
28606;BME280;46498;49.968;7.754;2023-01-26T22:19:36;97383.00;;;-0.16;100.00
28606;BME280;46498;49.968;7.754;2023-01-26T22:24:37;97386.00;;;-0.17;100.00
28606;BME280;46498;49.968;7.754;2023-01-26T22:29:38;97382.00;;;-0.16;100.00
28606;BME280;46498;49.968;7.754;2023-01-26T22:34:39;97374.00;;;-0.13;100.00
28606;BME280;46498;49.968;7.754;2023-01-26T22:39:40;97382.00;;;-0.18;100.00
28606;BME280;46498;49.968;7.754;2023-01-26T22:44:43;97374.00;;;-0.08;100.00
28606;BME280;46498;49.968;7.754;2023-01-26T22:49:43;97380.00;;;-0.19;100.00
28606;BME280;46498;49.968;7.754;2023-01-26T22:54:44;97378.00;;;-0.20;100.00
28606;BME280;46498;49.968;7.754;2023-01-26T22:59:45;97377.00;;;-0.07;100.00
28606;BME280;46498;49.968;7.754;2023-01-26T23:04:46;97379.00;;;-0.06;100.00
28606;BME280;46498;49.968;7.754;2023-01-26T23:09:47;97372.00;;;0.10;100.00
28606;BME280;46498;49.968;7.754;2023-01-26T23:14:48;97366.00;;;-0.04;100.00
28606;BME280;46498;49.968;7.754;2023-01-26T23:19:49;97373.00;;;0.00;100.00
28606;BME280;46498;49.968;7.754;2023-01-26T23:24:49;97366.00;;;-0.09;100.00
28606;BME280;46498;49.968;7.754;2023-01-26T23:30:09;97364.00;;;-0.16;100.00
28606;BME280;46498;49.968;7.754;2023-01-26T23:35:11;97359.00;;;-0.12;100.00
28606;BME280;46498;49.968;7.754;2023-01-26T23:40:12;97364.00;;;-0.14;100.00
28606;BME280;46498;49.968;7.754;2023-01-26T23:45:15;97355.00;;;-0.13;100.00
28606;BME280;46498;49.968;7.754;2023-01-26T23:50:16;97359.00;;;-0.10;100.00
28606;BME280;46498;49.968;7.754;2023-01-26T23:55:17;97357.00;;;-0.08;100.00
